Lightning — WDG5277 — position and weather

sailwx.info

Track history (hours):
 
Tides and Currents Weather Stations Pressure Air Temp Water Temp Dewpoint Dewpoint Depression Visibility Wind Speed Wind Dir Waves Ship Positions

Lightning

Owner: Harley Marine Services, Inc, Seattle, WA. More information available from US FCC via Universal Licensing System and Coast Guard Vessel Documentation Center.

Last reported at 2017-Dec-08 22:14 UTC. Time now 2017-Dec-11 02:21 UTC.
Position N 29°34' W 090°23'.

Length 18 m; draft 3.5 m.

Type: Towing. MMSI: 367544970.

Date/timePositionNaut miles runAvg speedWind from/ knotsBaromVisibWave heightAir tempDewpointWater temp
2017-Dec-08 22:14N 29°34' W 090°23'5 4.9
2017-Dec-08 21:11N 29°34' W 090°29'1 5.3
2017-Dec-08 21:00N 29°34' W 090°30'3 5.1
2017-Dec-08 20:30N 29°34' W 090°33'2 4.5
2017-Dec-08 20:00N 29°35' W 090°36'1 2.7
2017-Dec-08 19:30N 29°35' W 090°37'1 1.6
2017-Dec-08 19:00N 29°35' W 090°38'0 0.0
2017-Dec-08 18:31N 29°35' W 090°38'1 2.5
2017-Dec-08 18:01N 29°36' W 090°39'2 4.7
2017-Dec-08 17:31N 29°37' W 090°42'2 3.3
2017-Dec-08 17:00N 29°35' W 090°43'2 3.2
2017-Dec-08 16:31N 29°34' W 090°44'1 1.8
2017-Dec-08 16:00N 29°34' W 090°45'1 1.1
2017-Dec-08 15:30N 29°33' W 090°45'2 3.4
2017-Dec-08 15:00N 29°32' W 090°46'3 5.5
2017-Dec-08 14:30N 29°32' W 090°50'3 5.5
2017-Dec-08 14:00N 29°32' W 090°53'3 5.9
2017-Dec-08 13:29N 29°34' W 090°56'3 5.5
2017-Dec-08 13:00N 29°36' W 090°58'51 3.4
2017-Dec-07 21:50N 29°51' W 091°55'2 5.3
2017-Dec-07 21:30N 29°51' W 091°57'2 5.1
2017-Dec-07 21:01N 29°50' W 091°59'3 5.6
2017-Dec-07 20:30N 29°49' W 092°02'3 5.3
2017-Dec-07 20:01N 29°48' W 092°05'2 4.6
2017-Dec-07 19:30N 29°47' W 092°08'3 5.3
2017-Dec-07 19:00N 29°47' W 092°11'2 3.9
2017-Dec-07 18:30N 29°47' W 092°13'3 5.2
2017-Dec-07 18:00N 29°48' W 092°16'3 5.2
2017-Dec-07 17:30N 29°50' W 092°18'3 5.0
2017-Dec-07 17:00N 29°51' W 092°21'33 4.5
2017-Dec-07 09:44N 29°56' W 092°58'1 4.5
2017-Dec-07 09:30N 29°56' W 092°59'2 4.5
2017-Dec-07 09:00N 29°56' W 093°02'2 4.2
2017-Dec-07 08:30N 29°56' W 093°04'1 1.3
2017-Dec-07 08:01N 29°56' W 093°05'2 3.9
2017-Dec-07 07:30N 29°56' W 093°07'2 4.3
2017-Dec-07 07:00N 29°56' W 093°10'1 2.9
2017-Dec-07 06:30N 29°57' W 093°11'2 4.3
2017-Dec-07 06:00N 29°59' W 093°12'2 3.8
2017-Dec-07 05:31N 30°00' W 093°14'2 3.4
2017-Dec-07 05:01N 30°02' W 093°15'1 3.0
2017-Dec-07 04:31N 30°03' W 093°16'1 2.8
2017-Dec-07 04:00N 30°04' W 093°16'1 2.8
2017-Dec-07 03:30N 30°05' W 093°17'0 0.8
2017-Dec-07 03:00N 30°05' W 093°18'1 1.3
2017-Dec-07 02:30N 30°06' W 093°18'0 0.3
2017-Dec-07 02:00N 30°06' W 093°18'1 0.2
2017-Dec-06 23:11N 30°06' W 093°19'0 0.1
2017-Dec-06 23:00N 30°06' W 093°19'0 0.0
2017-Dec-06 22:30N 30°06' W 093°19'0 0.0
2017-Dec-06 22:01N 30°06' W 093°19'0 0.0
2017-Dec-06 21:30N 30°06' W 093°19'0 0.0
2017-Dec-06 21:01N 30°06' W 093°19'  
2017-Dec-04 01:52N 29°58' W 093°51'0 0.0
2017-Dec-04 01:16N 29°58' W 093°51'0 0.0
2017-Dec-03 15:43N 29°58' W 093°51'0 0.0
2017-Dec-03 15:30N 29°58' W 093°51'0 0.0
2017-Dec-03 14:59N 29°58' W 093°51'0 0.0
2017-Dec-03 13:57N 29°58' W 093°51'0 0.0
2017-Dec-03 12:52N 29°58' W 093°51'0 0.0
2017-Dec-03 12:28N 29°58' W 093°51'0 0.0
2017-Dec-03 10:53N 29°58' W 093°51'0 0.0
2017-Dec-03 10:07N 29°58' W 093°51'0 0.0
2017-Dec-03 09:20N 29°58' W 093°51'0 0.0
2017-Dec-03 08:56N 29°58' W 093°51'0 0.0
2017-Dec-03 07:33N 29°58' W 093°51'7 1.0
2017-Dec-03 00:05N 30°03' W 093°44'0 6.8
2017-Dec-03 00:01N 30°03' W 093°44'2 2.5
2017-Dec-02 23:03N 30°04' W 093°41'0 5.4
2017-Dec-02 23:00N 30°04' W 093°40'3 6.4
2017-Dec-02 22:30N 30°04' W 093°37'3 6.3
2017-Dec-02 22:00N 30°04' W 093°33'3 6.2
2017-Dec-02 21:30N 30°04' W 093°30'3 6.4
2017-Dec-02 21:00N 30°04' W 093°26'3 6.3
2017-Dec-02 20:30N 30°04' W 093°22'2 4.4
2017-Dec-02 20:00N 30°05' W 093°20'2 4.0
2017-Dec-02 19:30N 30°06' W 093°18'2 4.2
2017-Dec-02 19:00N 30°04' W 093°16'3 5.5
2017-Dec-02 18:30N 30°02' W 093°15'3 5.4
2017-Dec-02 18:01N 29°60' W 093°13'2 3.6
2017-Dec-02 17:30N 29°58' W 093°12'3 5.6
2017-Dec-02 17:00N 29°56' W 093°10'3 5.9
2017-Dec-02 16:29N 29°56' W 093°06'7 6.1
2017-Dec-02 15:17N 29°56' W 092°58'31 2.1
2017-Dec-02 00:27N 29°51' W 092°22'2 4.7
2017-Dec-02 00:00N 29°50' W 092°19'2 4.7
2017-Dec-01 23:31N 29°49' W 092°17'3 6.3
2017-Dec-01 23:00N 29°48' W 092°14'3 5.1
2017-Dec-01 22:30N 29°47' W 092°11'1 2.9
2017-Dec-01 22:01N 29°47' W 092°10'3 6.2
2017-Dec-01 21:31N 29°48' W 092°06'3 6.2
2017-Dec-01 21:00N 29°49' W 092°03'3 6.6
2017-Dec-01 20:30N 29°50' W 091°59'56 5.3
2017-Dec-01 09:55N 29°34' W 090°57'3 6.1
2017-Dec-01 09:29N 29°33' W 090°54'3 5.8
2017-Dec-01 09:00N 29°32' W 090°51'3 5.9
2017-Dec-01 08:30N 29°32' W 090°48'2 5.0
2017-Dec-01 08:01N 29°33' W 090°45'2 4.3
2017-Dec-01 07:30N 29°35' W 090°43'2 4.0
2017-Dec-01 07:01N 29°36' W 090°43'2 3.0
2017-Dec-01 06:30N 29°36' W 090°41'2 4.4
2017-Dec-01 06:00N 29°35' W 090°38'2 4.1
2017-Dec-01 05:30N 29°35' W 090°36'2 4.3
2017-Dec-01 05:00N 29°34' W 090°34'2 3.1
2017-Dec-01 04:30N 29°34' W 090°32'0 0.0
2017-Dec-01 04:00N 29°34' W 090°32'0 0.1
2017-Dec-01 03:30N 29°34' W 090°32'0 0.5
2017-Dec-01 03:00N 29°34' W 090°32'3 5.9
2017-Dec-01 02:30N 29°34' W 090°28'  
Track history (hours):
 
Tides and Currents Weather Stations Pressure Air Temp Water Temp Dewpoint Dewpoint Depression Visibility Wind Speed Wind Dir Waves Ship Positions

Lightning

Owner: Harley Marine Services, Inc, Seattle, WA. More information available from US FCC via Universal Licensing System and Coast Guard Vessel Documentation Center.

Last reported at 2017-Dec-08 22:14 UTC. Time now 2017-Dec-11 02:21 UTC.
Position N 29°34' W 090°23'.

Length 18 m; draft 3.5 m.

Type: Towing. MMSI: 367544970.

Date/timePositionNaut miles runAvg speedWind from/ knotsBaromVisibWave heightAir tempDewpointWater temp
2017-Dec-08 22:14N 29°34' W 090°23'5 4.9
2017-Dec-08 21:11N 29°34' W 090°29'1 5.3
2017-Dec-08 21:00N 29°34' W 090°30'3 5.1
2017-Dec-08 20:30N 29°34' W 090°33'2 4.5
2017-Dec-08 20:00N 29°35' W 090°36'1 2.7
2017-Dec-08 19:30N 29°35' W 090°37'1 1.6
2017-Dec-08 19:00N 29°35' W 090°38'0 0.0
2017-Dec-08 18:31N 29°35' W 090°38'1 2.5
2017-Dec-08 18:01N 29°36' W 090°39'2 4.7
2017-Dec-08 17:31N 29°37' W 090°42'2 3.3
2017-Dec-08 17:00N 29°35' W 090°43'2 3.2
2017-Dec-08 16:31N 29°34' W 090°44'1 1.8
2017-Dec-08 16:00N 29°34' W 090°45'1 1.1
2017-Dec-08 15:30N 29°33' W 090°45'2 3.4
2017-Dec-08 15:00N 29°32' W 090°46'3 5.5
2017-Dec-08 14:30N 29°32' W 090°50'3 5.5
2017-Dec-08 14:00N 29°32' W 090°53'3 5.9
2017-Dec-08 13:29N 29°34' W 090°56'3 5.5
2017-Dec-08 13:00N 29°36' W 090°58'51 3.4
2017-Dec-07 21:50N 29°51' W 091°55'2 5.3
2017-Dec-07 21:30N 29°51' W 091°57'2 5.1
2017-Dec-07 21:01N 29°50' W 091°59'3 5.6
2017-Dec-07 20:30N 29°49' W 092°02'3 5.3
2017-Dec-07 20:01N 29°48' W 092°05'2 4.6
2017-Dec-07 19:30N 29°47' W 092°08'3 5.3
2017-Dec-07 19:00N 29°47' W 092°11'2 3.9
2017-Dec-07 18:30N 29°47' W 092°13'3 5.2
2017-Dec-07 18:00N 29°48' W 092°16'3 5.2
2017-Dec-07 17:30N 29°50' W 092°18'3 5.0
2017-Dec-07 17:00N 29°51' W 092°21'33 4.5
2017-Dec-07 09:44N 29°56' W 092°58'1 4.5
2017-Dec-07 09:30N 29°56' W 092°59'2 4.5
2017-Dec-07 09:00N 29°56' W 093°02'2 4.2
2017-Dec-07 08:30N 29°56' W 093°04'1 1.3
2017-Dec-07 08:01N 29°56' W 093°05'2 3.9
2017-Dec-07 07:30N 29°56' W 093°07'2 4.3
2017-Dec-07 07:00N 29°56' W 093°10'1 2.9
2017-Dec-07 06:30N 29°57' W 093°11'2 4.3
2017-Dec-07 06:00N 29°59' W 093°12'2 3.8
2017-Dec-07 05:31N 30°00' W 093°14'2 3.4
2017-Dec-07 05:01N 30°02' W 093°15'1 3.0
2017-Dec-07 04:31N 30°03' W 093°16'1 2.8
2017-Dec-07 04:00N 30°04' W 093°16'1 2.8
2017-Dec-07 03:30N 30°05' W 093°17'0 0.8
2017-Dec-07 03:00N 30°05' W 093°18'1 1.3
2017-Dec-07 02:30N 30°06' W 093°18'0 0.3
2017-Dec-07 02:00N 30°06' W 093°18'1 0.2
2017-Dec-06 23:11N 30°06' W 093°19'0 0.1
2017-Dec-06 23:00N 30°06' W 093°19'0 0.0
2017-Dec-06 22:30N 30°06' W 093°19'0 0.0
2017-Dec-06 22:01N 30°06' W 093°19'0 0.0
2017-Dec-06 21:30N 30°06' W 093°19'0 0.0
2017-Dec-06 21:01N 30°06' W 093°19'  
2017-Dec-04 01:52N 29°58' W 093°51'0 0.0
2017-Dec-04 01:16N 29°58' W 093°51'0 0.0
2017-Dec-03 15:43N 29°58' W 093°51'0 0.0
2017-Dec-03 15:30N 29°58' W 093°51'0 0.0
2017-Dec-03 14:59N 29°58' W 093°51'0 0.0
2017-Dec-03 13:57N 29°58' W 093°51'0 0.0
2017-Dec-03 12:52N 29°58' W 093°51'0 0.0
2017-Dec-03 12:28N 29°58' W 093°51'0 0.0
2017-Dec-03 10:53N 29°58' W 093°51'0 0.0
2017-Dec-03 10:07N 29°58' W 093°51'0 0.0
2017-Dec-03 09:20N 29°58' W 093°51'0 0.0
2017-Dec-03 08:56N 29°58' W 093°51'0 0.0
2017-Dec-03 07:33N 29°58' W 093°51'7 1.0
2017-Dec-03 00:05N 30°03' W 093°44'0 6.8
2017-Dec-03 00:01N 30°03' W 093°44'2 2.5
2017-Dec-02 23:03N 30°04' W 093°41'0 5.4
2017-Dec-02 23:00N 30°04' W 093°40'3 6.4
2017-Dec-02 22:30N 30°04' W 093°37'3 6.3
2017-Dec-02 22:00N 30°04' W 093°33'3 6.2
2017-Dec-02 21:30N 30°04' W 093°30'3 6.4
2017-Dec-02 21:00N 30°04' W 093°26'3 6.3
2017-Dec-02 20:30N 30°04' W 093°22'2 4.4
2017-Dec-02 20:00N 30°05' W 093°20'2 4.0
2017-Dec-02 19:30N 30°06' W 093°18'2 4.2
2017-Dec-02 19:00N 30°04' W 093°16'3 5.5
2017-Dec-02 18:30N 30°02' W 093°15'3 5.4
2017-Dec-02 18:01N 29°60' W 093°13'2 3.6
2017-Dec-02 17:30N 29°58' W 093°12'3 5.6
2017-Dec-02 17:00N 29°56' W 093°10'3 5.9
2017-Dec-02 16:29N 29°56' W 093°06'7 6.1
2017-Dec-02 15:17N 29°56' W 092°58'31 2.1
2017-Dec-02 00:27N 29°51' W 092°22'2 4.7
2017-Dec-02 00:00N 29°50' W 092°19'2 4.7
2017-Dec-01 23:31N 29°49' W 092°17'3 6.3
2017-Dec-01 23:00N 29°48' W 092°14'3 5.1
2017-Dec-01 22:30N 29°47' W 092°11'1 2.9
2017-Dec-01 22:01N 29°47' W 092°10'3 6.2
2017-Dec-01 21:31N 29°48' W 092°06'3 6.2
2017-Dec-01 21:00N 29°49' W 092°03'3 6.6
2017-Dec-01 20:30N 29°50' W 091°59'56 5.3
2017-Dec-01 09:55N 29°34' W 090°57'3 6.1
2017-Dec-01 09:29N 29°33' W 090°54'3 5.8
2017-Dec-01 09:00N 29°32' W 090°51'3 5.9
2017-Dec-01 08:30N 29°32' W 090°48'2 5.0
2017-Dec-01 08:01N 29°33' W 090°45'2 4.3
2017-Dec-01 07:30N 29°35' W 090°43'2 4.0
2017-Dec-01 07:01N 29°36' W 090°43'2 3.0
2017-Dec-01 06:30N 29°36' W 090°41'2 4.4
2017-Dec-01 06:00N 29°35' W 090°38'2 4.1
2017-Dec-01 05:30N 29°35' W 090°36'2 4.3
2017-Dec-01 05:00N 29°34' W 090°34'2 3.1
2017-Dec-01 04:30N 29°34' W 090°32'0 0.0
2017-Dec-01 04:00N 29°34' W 090°32'0 0.1
2017-Dec-01 03:30N 29°34' W 090°32'0 0.5
2017-Dec-01 03:00N 29°34' W 090°32'3 5.9
2017-Dec-01 02:30N 29°34' W 090°28'  

Dump ship's entire track history